LYTVLQMO

Guest
Details From LYTV - Tivat
To LQMO - MOSTAR
Flight Number -
Tags generated
Created
Modified
Stats Distance 65 nm / 121 km
Max Altitude 200 ft / 61 m
Waypoints 3
Social Downloads 0
Likes 0
Share VATSIM

Download

Looking for another format? Having issues loading an existing format? Contact us
Advertisement - Login to hide

Notes

Basic altitude profile: - Ascent Rate: 2500ft/min - Ascent Speed: 250kts - Cruise Altitude: 35000ft - Cruise Speed: 420kts - Descent Rate: 1500ft/min - Descent Speed: 250kts Options: - Use NATs: yes - Use PACOTS: no - Use low airways: yes - Use high airways: no

Route

LYTV BARIT LQMO

ID Type Via Altitude Latitude Longitude Leg Dist Tot Dist Heading (true) Name
O LYTV APT - 0 ft / 0 m 42.40466˚ 18.72329˚ - 0 nm - Tivat
BARIT FIX - 200 ft / 61 m 43.26111˚ 17.85583˚ 64 nm 64 nm 324° / 323° -
O LQMO APT - 0 ft / 0 m 43.28292˚ 17.84587˚ 1 nm 65 nm 342° / 342° MOSTAR

Altitude Profile

Advertisement - Login to hide

LYTV

Details ICAO LYTV (TIV)
Name Tivat
Region Serbia and Montenegro
Timezone Europe/Podgorica (UTC+2.0)
Stats Elevation 20 ft / 6 m (AMSL)
Location 42.404657° 18.723295°
Runways 1
Magnetic Variation 4.209° E

METAR

LYTV 260230Z 00000KT CAVOK 16/15 Q1015

Decode

TAF

TAF LYTV 252300Z 2600/2624 03005KT 9999 FEW040 TX30/2613Z TN15/2603Z

Decode

Departure Runways

ID Width Length Bearing (true) Bearing (mag) Surface Threshold Offset Overrun Length
14 148 ft / 45 m 8,206 ft / 2,501 m 139.03° 134.82° Asphalt 300 ft / 91 m 0 ft / 0 m
32 148 ft / 45 m 8,206 ft / 2,501 m 319.04° 314.83° Asphalt 300 ft / 91 m 0 ft / 0 m

LQMO

Details ICAO LQMO (OMO)
Name MOSTAR
Region Bosnia and Herzegovinia
Timezone Europe/Sarajevo (UTC+2.0)
Stats Elevation 156 ft / 48 m (AMSL)
Location 43.282916° 17.845865°
Runways 1
Magnetic Variation 4.138° E

METAR

LQMO 260200Z VRB02KT 9999 FEW050 16/15 Q1015

Decode

TAF

Not found

Destination Runways

ID Width Length Bearing (true) Bearing (mag) Surface Threshold Offset Overrun Length
16 158 ft / 48 m 7,843 ft / 2,391 m 157.82° 153.68° Asphalt 0 ft / 0 m 0 ft / 0 m
34 158 ft / 48 m 7,843 ft / 2,391 m 337.83° 333.69° Asphalt 0 ft / 0 m 0 ft / 0 m